createdAt,value
2018-02-19T00:01:13.555Z,34.53
2018-02-19T00:03:41.001Z,28.35
2018-02-19T00:06:08.433Z,31.67
2018-02-19T00:08:35.860Z,28.77
2018-02-19T00:11:03.296Z,32.60
2018-02-19T00:13:30.834Z,33.60
2018-02-19T00:15:58.288Z,30.25
2018-02-19T00:18:25.739Z,37.08
2018-02-19T00:20:53.200Z,31.83
2018-02-19T00:23:20.633Z,29.87
2018-02-19T00:25:48.065Z,30.85
2018-02-19T00:28:15.481Z,33.42
2018-02-19T00:30:42.935Z,29.73
2018-02-19T00:33:10.416Z,27.52
2018-02-19T00:35:37.819Z,35.15
2018-02-19T00:38:05.396Z,31.17
2018-02-19T00:40:33.735Z,27.42
2018-02-19T00:43:01.214Z,28.35
2018-02-19T00:45:28.713Z,28.27
2018-02-19T00:47:56.144Z,30.77
2018-02-19T00:50:23.580Z,28.70
2018-02-19T00:52:51.009Z,29.50
2018-02-19T00:55:18.526Z,26.42
2018-02-19T00:57:46.276Z,28.20
2018-02-19T01:00:13.805Z,34.58
2018-02-19T01:02:41.484Z,32.53
2018-02-19T01:05:08.917Z,30.85
2018-02-19T01:07:36.406Z,29.25
2018-02-19T01:10:03.828Z,30.37
2018-02-19T01:12:31.260Z,31.70
2018-02-19T01:14:58.691Z,31.52
2018-02-19T01:17:26.140Z,29.30
2018-02-19T01:19:53.578Z,34.80
2018-02-19T01:22:21.144Z,29.15
2018-02-19T01:24:48.572Z,29.80
2018-02-19T01:27:16.055Z,28.42
2018-02-19T01:29:43.500Z,30.25
2018-02-19T01:32:10.929Z,30.02
2018-02-19T01:34:38.352Z,24.25
2018-02-19T01:37:05.899Z,22.95
2018-02-19T01:39:33.520Z,25.95
2018-02-19T01:42:01.104Z,24.40
2018-02-19T01:44:28.536Z,24.85
2018-02-19T01:46:55.965Z,24.80
2018-02-19T01:49:23.396Z,22.23
2018-02-19T01:51:51.753Z,24.70
2018-02-19T01:54:19.295Z,22.77
2018-02-19T01:56:46.736Z,24.85
2018-02-19T01:59:14.210Z,21.20
2018-02-19T02:01:41.640Z,21.35
2018-02-19T02:04:09.055Z,21.12
2018-02-19T02:06:36.567Z,18.62
2018-02-19T02:09:04.000Z,19.98
2018-02-19T02:11:31.424Z,19.85
2018-02-19T02:13:58.944Z,22.35
2018-02-19T02:16:26.399Z,19.87
2018-02-19T02:18:53.828Z,17.60
2018-02-19T02:21:21.315Z,21.10
2018-02-19T02:23:48.730Z,22.65
2018-02-19T02:26:16.160Z,21.75
2018-02-19T02:28:43.700Z,20.15
2018-02-19T02:31:11.445Z,22.62
2018-02-19T02:33:38.873Z,20.58
2018-02-19T02:36:06.301Z,22.50
2018-02-19T02:38:33.739Z,17.90
2018-02-19T02:41:01.280Z,20.27
2018-02-19T02:43:28.717Z,21.60
2018-02-19T02:45:56.210Z,19.70
2018-02-19T02:48:23.634Z,17.20
2018-02-19T02:50:51.301Z,19.80
2018-02-19T02:53:18.711Z,26.50
2018-02-19T02:55:46.901Z,20.95
2018-02-19T02:58:14.349Z,21.33
2018-02-19T03:00:41.852Z,20.80
2018-02-19T03:03:09.305Z,21.98
2018-02-19T03:05:36.738Z,18.83
2018-02-19T03:08:04.154Z,21.70
2018-02-19T03:10:31.591Z,20.98
2018-02-19T03:12:59.018Z,20.15
2018-02-19T03:15:26.588Z,21.15
2018-02-19T03:17:54.041Z,20.08
2018-02-19T03:20:21.471Z,20.75
2018-02-19T03:22:48.893Z,20.20
2018-02-19T03:25:16.409Z,21.30
2018-02-19T03:27:44.172Z,22.10
2018-02-19T03:30:11.629Z,23.12
2018-02-19T03:32:39.084Z,21.95
2018-02-19T03:35:06.535Z,20.02
2018-02-19T03:37:33.969Z,22.85
2018-02-19T03:40:01.447Z,18.60
2018-02-19T03:42:28.883Z,18.35
2018-02-19T03:44:56.357Z,18.70
2018-02-19T03:47:23.820Z,18.15
2018-02-19T03:49:51.250Z,21.60
2018-02-19T03:52:18.727Z,21.35
2018-02-19T03:54:46.187Z,19.62
2018-02-19T03:57:13.644Z,20.75
2018-02-19T03:59:41.100Z,23.77
2018-02-19T04:02:08.549Z,20.80
2018-02-19T04:04:35.966Z,22.40
2018-02-19T04:07:03.387Z,19.87
2018-02-19T04:09:30.927Z,18.70
2018-02-19T04:11:58.384Z,22.42
2018-02-19T04:14:26.032Z,20.65
2018-02-19T04:16:53.472Z,20.73
2018-02-19T04:19:20.933Z,18.10
2018-02-19T04:21:48.516Z,20.62
2018-02-19T04:24:15.959Z,21.62
2018-02-19T04:26:43.390Z,21.62
2018-02-19T04:29:10.877Z,18.55
2018-02-19T04:31:38.304Z,19.05
2018-02-19T04:34:05.743Z,18.33
2018-02-19T04:36:33.176Z,19.52
2018-02-19T04:39:00.624Z,17.73
2018-02-19T04:41:28.079Z,18.02
2018-02-19T04:43:55.509Z,19.40
2018-02-19T04:49:20.955Z,20.90
2018-02-19T04:51:48.412Z,20.65
2018-02-19T04:54:16.035Z,17.40
2018-02-19T04:56:43.533Z,21.05
2018-02-19T04:59:10.959Z,20.83
2018-02-19T05:01:38.403Z,18.17
2018-02-19T05:04:05.853Z,21.87
2018-02-19T05:06:33.298Z,21.70
2018-02-19T05:09:00.800Z,20.62
2018-02-19T05:11:28.273Z,21.65
2018-02-19T05:13:55.815Z,19.60
2018-02-19T05:16:23.281Z,19.87
2018-02-19T05:18:51.033Z,23.83
2018-02-19T05:21:18.487Z,21.45
2018-02-19T05:23:45.907Z,21.05
2018-02-19T05:26:13.416Z,22.65
2018-02-19T05:28:40.965Z,23.58
2018-02-19T05:31:08.510Z,21.62
2018-02-19T05:33:36.020Z,24.20
2018-02-19T05:36:03.457Z,25.85
2018-02-19T05:38:30.902Z,24.48
2018-02-19T05:40:58.351Z,20.75
2018-02-19T05:43:25.900Z,22.48
2018-02-19T05:45:53.360Z,21.67
2018-02-19T05:48:20.818Z,20.17
2018-02-19T05:50:48.237Z,18.42
2018-02-19T05:53:15.706Z,22.40
2018-02-19T05:55:43.128Z,24.70
2018-02-19T05:58:10.556Z,22.80
2018-02-19T06:00:38.101Z,22.50
2018-02-19T06:03:05.866Z,24.75
2018-02-19T06:05:33.296Z,22.75
2018-02-19T06:08:00.720Z,22.00
2018-02-19T06:10:28.147Z,21.95
2018-02-19T06:12:55.580Z,24.50
2018-02-19T06:15:23.144Z,23.62
2018-02-19T06:17:50.612Z,27.60
2018-02-19T06:20:18.052Z,26.37
2018-02-19T06:22:45.509Z,28.38
2018-02-19T06:25:12.946Z,26.42
2018-02-19T06:27:40.625Z,25.45
2018-02-19T06:30:08.188Z,22.87
2018-02-19T06:32:35.612Z,28.42
2018-02-19T06:35:03.100Z,25.40
2018-02-19T06:37:30.537Z,25.60
2018-02-19T06:39:57.980Z,25.05
2018-02-19T06:42:25.407Z,25.70
2018-02-19T06:44:52.931Z,25.25
2018-02-19T06:47:20.379Z,32.33
2018-02-19T06:49:47.806Z,26.27
2018-02-19T06:52:15.292Z,22.40
2018-02-19T06:54:43.000Z,24.50
2018-02-19T06:57:11.435Z,23.58
2018-02-19T06:59:38.856Z,20.48
2018-02-19T07:02:06.550Z,22.02
2018-02-19T07:04:33.988Z,21.25
2018-02-19T07:07:01.565Z,21.70
2018-02-19T07:09:29.016Z,26.30
2018-02-19T07:11:56.489Z,24.87
2018-02-19T07:14:23.935Z,23.08
2018-02-19T07:16:51.396Z,22.13
2018-02-19T07:19:19.031Z,24.98
2018-02-19T07:21:46.607Z,25.65
2018-02-19T07:24:14.076Z,24.80
2018-02-19T07:26:41.508Z,23.90
2018-02-19T07:29:08.987Z,23.08
2018-02-19T07:31:36.612Z,22.20
2018-02-19T07:34:04.112Z,25.45
2018-02-19T07:36:31.545Z,25.48
2018-02-19T07:38:58.985Z,26.40
2018-02-19T07:41:26.580Z,26.83
2018-02-19T07:43:54.000Z,23.70
2018-02-19T07:46:21.487Z,23.50
2018-02-19T07:48:48.935Z,27.85
2018-02-19T07:51:16.375Z,26.35
2018-02-19T07:53:43.788Z,28.20
2018-02-19T07:56:11.318Z,28.27
2018-02-19T07:58:38.736Z,25.98
2018-02-19T08:01:06.173Z,27.87
2018-02-19T08:03:33.597Z,31.65
2018-02-19T08:06:01.040Z,33.13
2018-02-19T08:08:28.506Z,32.88
2018-02-19T08:10:56.040Z,31.02
2018-02-19T08:13:23.484Z,35.00
2018-02-19T08:15:50.909Z,27.70
2018-02-19T08:18:18.430Z,29.15
2018-02-19T08:20:45.879Z,34.28
2018-02-19T08:23:13.303Z,32.00
2018-02-19T08:25:40.738Z,30.95
2018-02-19T08:28:08.166Z,26.80
2018-02-19T08:30:36.624Z,28.83
2018-02-19T08:33:04.086Z,27.17
2018-02-19T08:35:31.837Z,31.80
2018-02-19T08:37:59.284Z,27.85
2018-02-19T08:40:26.752Z,32.80
2018-02-19T08:42:54.175Z,26.90
2018-02-19T08:45:21.662Z,26.62
2018-02-19T08:47:49.301Z,29.83
2018-02-19T08:50:17.080Z,24.55
2018-02-19T08:52:44.506Z,26.37
2018-02-19T08:55:12.109Z,28.08
2018-02-19T08:57:39.865Z,27.60
2018-02-19T09:00:07.296Z,28.27
2018-02-19T09:02:34.712Z,28.60
2018-02-19T09:05:02.243Z,28.40
2018-02-19T09:07:29.703Z,28.62
2018-02-19T09:09:57.140Z,25.75
2018-02-19T09:12:24.565Z,26.80
2018-02-19T09:14:52.080Z,26.17
2018-02-19T09:17:19.517Z,25.42
2018-02-19T09:19:46.973Z,22.98
2018-02-19T09:22:14.403Z,22.33
2018-02-19T09:24:41.822Z,27.45
2018-02-19T09:27:09.334Z,25.60
2018-02-19T09:29:36.751Z,24.73
2018-02-19T09:32:04.252Z,21.55
2018-02-19T09:34:32.015Z,25.08
2018-02-19T09:36:59.471Z,27.50
2018-02-19T09:39:26.908Z,25.15
2018-02-19T09:41:54.394Z,23.23
2018-02-19T09:44:22.011Z,27.25
2018-02-19T09:46:49.803Z,28.52
2018-02-19T09:49:17.376Z,22.48
2018-02-19T09:51:44.812Z,25.10
2018-02-19T09:54:12.275Z,22.45
2018-02-19T09:56:39.715Z,23.42
2018-02-19T09:59:07.146Z,29.40
2018-02-19T10:01:34.644Z,26.23
2018-02-19T10:04:02.103Z,25.88
2018-02-19T10:06:29.561Z,26.00
2018-02-19T10:08:57.021Z,23.87
2018-02-19T10:11:24.651Z,25.92
2018-02-19T10:13:52.235Z,23.50
2018-02-19T10:16:19.687Z,25.77
2018-02-19T10:18:47.153Z,31.00
2018-02-19T10:21:14.783Z,25.95
2018-02-19T10:23:42.230Z,24.80
2018-02-19T10:26:09.697Z,26.67
2018-02-19T10:28:37.273Z,27.42
2018-02-19T10:31:04.704Z,25.20
2018-02-19T10:33:32.142Z,24.50
2018-02-19T10:35:59.654Z,27.08
2018-02-19T10:38:27.407Z,23.08
2018-02-19T10:40:54.831Z,24.83
2018-02-19T10:43:22.323Z,23.62
2018-02-19T10:45:49.748Z,24.60
2018-02-19T10:48:17.232Z,25.23
2018-02-19T10:50:44.644Z,21.05
2018-02-19T10:53:12.148Z,24.12
2018-02-19T10:55:39.575Z,26.10
2018-02-19T10:58:07.011Z,23.15
2018-02-19T11:00:40.136Z,20.65
2018-02-19T11:03:07.728Z,20.67
2018-02-19T11:05:35.279Z,22.73
2018-02-19T11:08:02.909Z,22.65
2018-02-19T11:10:30.361Z,22.13
2018-02-19T11:12:58.246Z,25.12
2018-02-19T11:15:26.581Z,18.75
2018-02-19T11:17:54.026Z,20.00
2018-02-19T11:20:21.447Z,17.15
2018-02-19T11:22:49.009Z,21.52
2018-02-19T11:25:16.639Z,19.20
2018-02-19T11:27:44.221Z,23.27
2018-02-19T11:30:11.672Z,21.80
2018-02-19T11:32:39.135Z,24.63
2018-02-19T11:35:06.576Z,18.27
2018-02-19T11:37:34.039Z,24.35
2018-02-19T11:40:01.473Z,18.05
2018-02-19T11:42:28.902Z,15.70
2018-02-19T11:44:56.438Z,21.45
2018-02-19T11:47:24.172Z,18.00
2018-02-19T11:49:51.628Z,18.75
2018-02-19T11:52:19.053Z,16.95
2018-02-19T11:54:46.475Z,12.90
2018-02-19T11:57:14.828Z,18.10
2018-02-19T11:59:42.828Z,15.85
2018-02-19T12:02:10.321Z,16.23
2018-02-19T12:04:37.908Z,19.42
2018-02-19T12:07:05.443Z,19.30
2018-02-19T12:09:33.127Z,15.20
2018-02-19T12:12:00.907Z,19.35
2018-02-19T12:14:28.517Z,19.23
2018-02-19T12:16:55.977Z,18.40
2018-02-19T12:19:23.473Z,17.73
2018-02-19T12:21:51.029Z,20.45
2018-02-19T12:24:18.656Z,16.73
2018-02-19T12:26:46.232Z,17.12
2018-02-19T12:29:13.680Z,16.25
2018-02-19T12:31:42.071Z,15.85
2018-02-19T12:34:09.499Z,18.02
2018-02-19T12:36:36.932Z,15.93
2018-02-19T12:39:04.955Z,18.15
2018-02-19T12:41:32.425Z,17.50
2018-02-19T12:43:59.881Z,19.52
2018-02-19T12:46:27.304Z,16.42
2018-02-19T12:48:54.770Z,17.58
2018-02-19T12:51:22.284Z,21.45
2018-02-19T12:53:49.704Z,15.38
2018-02-19T12:56:17.261Z,18.10
2018-02-19T12:58:44.688Z,17.62
2018-02-19T13:01:12.130Z,13.57
2018-02-19T13:03:39.612Z,18.05
2018-02-19T13:06:07.080Z,14.77
2018-02-19T13:08:34.715Z,13.80
2018-02-19T13:11:02.167Z,17.00
2018-02-19T13:13:29.612Z,16.40
2018-02-19T13:15:57.837Z,11.98
2018-02-19T13:18:25.271Z,14.52
2018-02-19T13:20:52.713Z,21.12
2018-02-19T13:23:20.192Z,17.52
2018-02-19T13:25:48.185Z,20.35
2018-02-19T13:28:15.708Z,20.00
2018-02-19T13:30:43.131Z,17.85
2018-02-19T13:33:10.556Z,17.55
2018-02-19T13:35:38.873Z,19.12
2018-02-19T13:38:06.457Z,16.87
2018-02-19T13:40:33.924Z,15.13
2018-02-19T13:43:01.388Z,20.02
2018-02-19T13:45:28.822Z,17.30
2018-02-19T13:47:56.241Z,15.50
2018-02-19T13:50:23.681Z,18.35
2018-02-19T13:52:51.113Z,17.12
2018-02-19T13:55:18.569Z,19.77
2018-02-19T13:57:46.123Z,13.90
2018-02-19T14:00:13.888Z,18.05
2018-02-19T14:02:41.343Z,19.35
2018-02-19T14:05:09.114Z,14.13
2018-02-19T14:07:36.547Z,14.48
2018-02-19T14:10:04.008Z,16.50
2018-02-19T14:12:31.427Z,17.60
2018-02-19T14:14:58.859Z,18.37
2018-02-19T14:17:26.296Z,17.50
2018-02-19T14:19:53.849Z,16.60
2018-02-19T14:22:21.296Z,17.25
2018-02-19T14:24:49.052Z,18.85
2018-02-19T14:27:16.489Z,18.33
2018-02-19T14:29:43.916Z,16.45
2018-02-19T14:32:11.355Z,18.02
2018-02-19T14:34:38.795Z,17.30
2018-02-19T14:37:06.340Z,17.35
2018-02-19T14:39:33.796Z,16.75
2018-02-19T14:42:01.556Z,19.40
2018-02-19T14:44:28.979Z,17.50
2018-02-19T14:46:56.415Z,19.25
2018-02-19T14:49:23.931Z,20.02
2018-02-19T14:51:51.379Z,19.65
2018-02-19T14:54:18.808Z,18.10
2018-02-19T14:56:46.247Z,18.60
2018-02-19T14:59:13.677Z,18.95
2018-02-19T15:01:41.203Z,17.92
2018-02-19T15:04:08.665Z,21.35
2018-02-19T15:06:36.436Z,20.15
2018-02-19T15:09:03.863Z,18.95
2018-02-19T15:11:31.360Z,23.10
2018-02-19T15:13:59.101Z,22.98
2018-02-19T15:16:26.732Z,21.33
2018-02-19T15:18:54.179Z,21.67
2018-02-19T15:21:22.368Z,17.60
2018-02-19T15:23:49.848Z,16.55
2018-02-19T15:26:17.536Z,18.67
2018-02-19T15:28:45.076Z,18.80
2018-02-19T15:31:12.535Z,19.10
2018-02-19T15:33:39.975Z,16.70
2018-02-19T15:36:07.432Z,18.90
2018-02-19T15:38:34.856Z,18.23
2018-02-19T15:41:02.363Z,17.95
2018-02-19T15:43:30.109Z,18.75
2018-02-19T15:45:57.544Z,21.35
2018-02-19T15:48:24.972Z,18.92
2018-02-19T15:50:52.399Z,20.08
2018-02-19T15:53:19.936Z,17.30
2018-02-19T15:55:47.359Z,14.98
2018-02-19T15:58:14.792Z,18.08
2018-02-19T16:00:42.308Z,20.27
2018-02-19T16:03:09.789Z,22.92
2018-02-19T16:05:37.406Z,19.23
2018-02-19T16:08:04.909Z,20.27
2018-02-19T16:10:32.351Z,21.87
2018-02-19T16:12:59.820Z,21.95
2018-02-19T16:15:27.247Z,20.85
2018-02-19T16:17:54.808Z,17.35
2018-02-19T16:20:22.241Z,20.37
2018-02-19T16:22:49.692Z,17.33
2018-02-19T16:25:17.136Z,20.85
2018-02-19T16:27:44.564Z,20.17
2018-02-19T16:30:12.101Z,23.15
2018-02-19T16:32:39.551Z,22.00
2018-02-19T16:35:07.201Z,18.60
2018-02-19T16:37:34.691Z,18.52
2018-02-19T16:40:02.128Z,15.48
2018-02-19T16:42:29.596Z,21.08
2018-02-19T16:44:57.127Z,24.42
2018-02-19T16:47:24.555Z,18.20
2018-02-19T16:49:52.005Z,16.33
2018-02-19T16:52:19.500Z,18.05
2018-02-19T16:54:46.931Z,19.08
2018-02-19T16:57:14.355Z,25.42
2018-02-19T16:59:41.808Z,17.77
2018-02-19T17:02:09.333Z,18.60
2018-02-19T17:04:36.763Z,19.30
2018-02-19T17:07:04.184Z,18.77
2018-02-19T17:09:31.611Z,22.45
2018-02-19T17:11:59.078Z,19.73
2018-02-19T17:14:26.515Z,19.65
2018-02-19T17:16:54.080Z,20.67
2018-02-19T17:19:21.819Z,17.73
2018-02-19T17:21:49.257Z,19.27
2018-02-19T17:24:16.684Z,20.90
2018-02-19T17:26:44.115Z,22.95
2018-02-19T17:29:11.656Z,22.55
2018-02-19T17:31:39.092Z,24.52
2018-02-19T17:34:06.520Z,22.60
2018-02-19T17:36:33.953Z,27.20
2018-02-19T17:39:01.404Z,23.85
2018-02-19T17:41:28.941Z,29.23
2018-02-19T17:43:56.531Z,27.80
2018-02-19T17:46:24.026Z,25.02
2018-02-19T17:48:51.528Z,18.92
2018-02-19T17:51:19.264Z,25.48
2018-02-19T17:53:46.700Z,21.40
2018-02-19T17:56:14.122Z,23.05
2018-02-19T17:58:41.553Z,23.33
2018-02-19T18:01:08.975Z,23.98
2018-02-19T18:03:36.556Z,24.25
2018-02-19T18:06:03.988Z,22.48
2018-02-19T18:08:31.484Z,25.17
2018-02-19T18:10:59.026Z,19.92
2018-02-19T18:13:26.488Z,24.90
2018-02-19T18:15:55.602Z,19.95
2018-02-19T18:18:23.129Z,25.10
2018-02-19T18:20:51.553Z,22.17
2018-02-19T18:23:19.001Z,26.67
2018-02-19T18:25:46.427Z,26.52
2018-02-19T18:28:13.860Z,23.17
2018-02-19T18:30:41.317Z,28.00
2018-02-19T18:33:08.813Z,21.30
2018-02-19T18:35:36.243Z,24.42
2018-02-19T18:38:03.705Z,24.60
2018-02-19T18:40:31.268Z,23.58
2018-02-19T18:42:58.844Z,27.92
2018-02-19T18:45:26.276Z,25.75
2018-02-19T18:47:53.949Z,23.87
2018-02-19T18:50:21.376Z,28.90
2018-02-19T18:52:49.701Z,28.00
2018-02-19T18:55:17.152Z,31.23
2018-02-19T18:57:44.595Z,32.83
2018-02-19T19:00:12.054Z,28.05
2018-02-19T19:02:39.581Z,28.62
2018-02-19T19:05:07.050Z,26.52
2018-02-19T19:07:46.267Z,24.63
2018-02-19T19:10:25.441Z,26.55
2018-02-19T19:12:52.929Z,28.85
2018-02-19T19:15:20.597Z,25.48
2018-02-19T19:17:48.008Z,23.77
2018-02-19T19:20:15.450Z,33.00
2018-02-19T19:22:42.929Z,27.98
2018-02-19T19:25:10.588Z,25.25
2018-02-19T19:27:38.034Z,25.00
2018-02-19T19:30:05.586Z,27.00
2018-02-19T19:32:33.235Z,28.77
2018-02-19T19:35:00.694Z,30.27
2018-02-19T19:37:28.163Z,26.80
2018-02-19T19:39:55.633Z,27.67
2018-02-19T19:42:23.069Z,25.08
2018-02-19T19:44:50.513Z,24.67
2018-02-19T19:47:17.921Z,27.27
2018-02-19T19:49:45.370Z,29.02
2018-02-19T19:52:12.996Z,27.85
2018-02-19T19:54:40.425Z,30.42
2018-02-19T19:57:07.925Z,26.95
2018-02-19T19:59:35.363Z,25.48
2018-02-19T20:02:02.802Z,27.37
2018-02-19T20:04:30.271Z,27.92
2018-02-19T20:06:57.694Z,32.33
2018-02-19T20:09:25.132Z,29.67
2018-02-19T20:11:52.575Z,29.42
2018-02-19T20:14:20.017Z,31.10
2018-02-19T20:16:47.560Z,30.52
2018-02-19T20:19:15.017Z,26.92
2018-02-19T20:21:42.472Z,26.12
2018-02-19T20:24:09.922Z,27.85
2018-02-19T20:26:37.394Z,32.92
2018-02-19T20:29:05.721Z,34.88
2018-02-19T20:31:33.141Z,36.08
2018-02-19T20:34:00.587Z,33.75
2018-02-19T20:36:28.111Z,30.80
2018-02-19T20:38:55.608Z,28.12
2018-02-19T20:41:23.046Z,32.70
2018-02-19T20:43:50.489Z,26.45
2018-02-19T20:46:17.942Z,27.33
2018-02-19T20:48:45.400Z,32.65
2018-02-19T20:51:12.811Z,29.70
2018-02-19T20:53:40.239Z,29.60
2018-02-19T20:56:07.771Z,27.70
2018-02-19T20:58:35.214Z,28.17
2018-02-19T21:01:02.693Z,22.40
2018-02-19T21:03:30.330Z,23.83
2018-02-19T21:05:57.772Z,33.40
2018-02-19T21:08:25.369Z,29.37
2018-02-19T21:10:52.783Z,29.42
2018-02-19T21:13:20.279Z,31.00
2018-02-19T21:15:47.701Z,32.00
2018-02-19T21:18:15.132Z,26.17
2018-02-19T21:20:43.331Z,27.17
2018-02-19T21:23:11.032Z,28.25
2018-02-19T21:25:38.479Z,28.77
2018-02-19T21:28:05.944Z,28.23
2018-02-19T21:30:33.391Z,25.75
2018-02-19T21:33:00.828Z,25.50
2018-02-19T21:35:28.316Z,27.25
2018-02-19T21:37:55.761Z,24.95
2018-02-19T21:40:23.200Z,26.35
2018-02-19T21:42:50.684Z,24.30
2018-02-19T21:45:18.302Z,29.12
2018-02-19T21:47:46.517Z,30.88
2018-02-19T21:50:13.987Z,31.42
2018-02-19T21:52:41.629Z,30.80
2018-02-19T21:55:09.057Z,24.90
2018-02-19T21:57:36.560Z,29.67
2018-02-19T22:00:04.101Z,30.45
2018-02-19T22:02:31.544Z,32.53
2018-02-19T22:04:59.003Z,26.87
2018-02-19T22:07:26.424Z,29.75
2018-02-19T22:09:53.855Z,32.03
2018-02-19T22:12:21.369Z,32.60
2018-02-19T22:14:48.822Z,35.05
2018-02-19T22:17:16.297Z,33.88
2018-02-19T22:19:43.737Z,29.55
2018-02-19T22:22:11.205Z,32.25
2018-02-19T22:24:38.627Z,32.65
2018-02-19T22:27:06.052Z,35.83
2018-02-19T22:29:33.572Z,35.00
2018-02-19T22:32:01.332Z,28.75
2018-02-19T22:34:28.759Z,31.27
2018-02-19T22:36:56.180Z,35.33
2018-02-19T22:39:24.376Z,36.13
2018-02-19T22:41:51.974Z,37.30
2018-02-19T22:44:19.385Z,36.63
2018-02-19T22:46:47.580Z,28.98
2018-02-19T22:49:15.014Z,29.08
2018-02-19T22:51:42.441Z,34.38
2018-02-19T22:54:09.898Z,28.75
2018-02-19T22:56:37.459Z,28.87
2018-02-19T22:59:05.077Z,32.78
2018-02-19T23:01:32.650Z,30.10
2018-02-19T23:04:00.104Z,30.75
2018-02-19T23:06:27.556Z,29.85
2018-02-19T23:08:54.990Z,27.50
2018-02-19T23:11:22.469Z,31.33
2018-02-19T23:13:49.931Z,34.30
2018-02-19T23:16:17.344Z,27.67
2018-02-19T23:18:44.771Z,31.12
2018-02-19T23:21:12.207Z,30.42
2018-02-19T23:23:39.639Z,31.27
2018-02-19T23:26:07.110Z,31.10
2018-02-19T23:28:34.574Z,31.55
2018-02-19T23:31:02.032Z,29.27
2018-02-19T23:33:29.478Z,33.40
2018-02-19T23:35:56.974Z,31.70
2018-02-19T23:38:24.411Z,32.90
2018-02-19T23:40:51.951Z,33.75
2018-02-19T23:43:19.400Z,32.00
2018-02-19T23:45:46.863Z,35.15
2018-02-19T23:48:14.315Z,31.30
2018-02-19T23:50:41.778Z,33.45
2018-02-19T23:53:09.415Z,30.77
2018-02-19T23:55:36.895Z,28.98
2018-02-19T23:58:04.321Z,31.90
